Oaklawn, Kansas
Current Conditions -  °F | °C
As of 5:58 AM on Thursday 23 Oct 2014 (Local Time) from KIAB Reporting Station
Overcast Overcast  
Wind Chill: 61°   Ceiling: 4300
Heat Index: 61°   Visibility: 10mi
Dew Point: 61°   Wind: 8mph
Humidity: 100%   Direction: 180°S
Pressure: 30.09"   Gusts: NA
Location:  37.6055°N, 97.3205°W
Report Text: KIAB 231058Z AUTO 18007KT 10SM BKN043 OVC055 16/16 A3009 RMK AO2 SLP184 T01600160
Loading
Personal Weather Stations






























Interactive Weather Map
Tropical Storm Tracking
New forecast layout! Learn more

10-Day Weather Forecast

Advertisements
Track Severe Weather on mobile